Buoy 43536

sailwx.info

Track history (hours):
 
Tides and Currents Weather Stations Pressure Air Temp Water Temp Dewpoint Dewpoint Depression Visibility Wind Speed Wind Dir Waves Ship Positions

Drifting buoy 43536

Last reported at 2018-Jan-18 06:00 UTC. Time now 2018-Jan-18 07:57 UTC.
Position N 16°42' W 162°58'.

Water temperature 25.4 ° C

Date/timePositionNaut miles runAvg speedWind from/ knotsBaromVisibWave heightAir tempDewpointWater temp
2018-Jan-18 06:00N 16°42' W 162°58'1 0.8 25.4
2018-Jan-18 05:00N 16°41' W 162°58'0 0.0 25.4
2018-Jan-18 04:00N 16°41' W 162°58'3 3.3 25.4
2018-Jan-18 03:00N 16°39' W 162°55'5 5.2 25.5
2018-Jan-18 02:00N 16°37' W 162°50'5 5.2 25.5
2018-Jan-18 01:00N 16°39' W 162°55'5 1.0 25.5
2018-Jan-17 20:00N 16°37' W 162°50'2 2.1 25.4
2018-Jan-17 19:00N 16°35' W 162°49'0 0.0 25.4
2018-Jan-17 18:00N 16°35' W 162°49'1 1.3 25.4
2018-Jan-17 17:00N 16°34' W 162°48'0 0.0 25.4
2018-Jan-17 16:00N 16°34' W 162°48'1 1.3 25.4
2018-Jan-17 15:00N 16°34' W 162°47'0 0.0 25.4
2018-Jan-17 14:00N 16°34' W 162°47'6 1.1 25.4
2018-Jan-17 08:00N 16°31' W 162°41'1 0.4 25.5
2018-Jan-17 06:00N 16°30' W 162°40'1 0.6 25.5
2018-Jan-17 05:00N 16°30' W 162°40'1 1.2 25.5
2018-Jan-17 04:00N 16°29' W 162°40'2 1.8 25.5
2018-Jan-17 03:00N 16°28' W 162°38'0 0.0 25.5
2018-Jan-17 02:00N 16°28' W 162°38'0 0.0 25.5
2018-Jan-17 01:00N 16°28' W 162°38'13 0.7 25.5
2018-Jan-16 07:00N 16°24' W 162°25'1 0.6 25.5
2018-Jan-16 06:00N 16°24' W 162°25'1 0.6 25.5
2018-Jan-16 05:00N 16°23' W 162°25'1 1.3 25.5
2018-Jan-16 04:00N 16°23' W 162°23'0 0.0 25.6
2018-Jan-16 03:00N 16°23' W 162°23'0 0.0 25.6
2018-Jan-16 02:00N 16°23' W 162°23'3 2.9 25.6
2018-Jan-16 01:00N 16°21' W 162°21'0 0.0 25.6
2018-Jan-15 21:00N 16°21' W 162°21'1 1.2 25.5
2018-Jan-15 20:00N 16°21' W 162°20'5 0.9 25.5
2018-Jan-15 15:00N 16°19' W 162°16'3 2.9 25.5
2018-Jan-15 14:00N 16°20' W 162°18'3 2.9 25.5
2018-Jan-15 13:00N 16°19' W 162°16'0 0.0 25.5
2018-Jan-15 08:00N 16°19' W 162°16'1 0.8 25.5
2018-Jan-15 07:00N 16°18' W 162°15'1 0.8 25.5
2018-Jan-15 06:00N 16°19' W 162°14'0 0.0 25.5
2018-Jan-15 05:00N 16°19' W 162°14'1 0.6 25.5
2018-Jan-15 04:00N 16°19' W 162°14'4 1.8 25.5
2018-Jan-15 02:00N 16°18' W 162°10'0 0.0 25.5
2018-Jan-15 01:00N 16°18' W 162°10'0 0.0 25.5
2018-Jan-15 00:00N 16°18' W 162°10'1 0.2 25.5
2018-Jan-14 21:00N 16°19' W 162°10'1 0.6 25.4
2018-Jan-14 20:00N 16°19' W 162°10'1 0.6 25.4
2018-Jan-14 19:00N 16°19' W 162°09'1 0.6 25.4
2018-Jan-14 18:00N 16°19' W 162°10'2 1.8 25.4
2018-Jan-14 17:00N 16°19' W 162°08'1 0.6 25.4
2018-Jan-14 16:00N 16°19' W 162°07'0 0.0 25.4
2018-Jan-14 15:00N 16°19' W 162°07'1 0.3 25.4
2018-Jan-14 13:00N 16°19' W 162°07'1 0.3 25.4
2018-Jan-14 09:00N 16°20' W 162°05'1 0.6 25.5
2018-Jan-14 08:00N 16°19' W 162°05'1 0.6 25.4
2018-Jan-14 07:00N 16°19' W 162°05'1 0.8 25.4
2018-Jan-14 06:00N 16°20' W 162°04'1 0.8 25.5
2018-Jan-14 05:00N 16°19' W 162°04'1 1.3 25.5
2018-Jan-14 04:00N 16°20' W 162°02'0 0.0 25.5
2018-Jan-14 03:00N 16°20' W 162°02'2 1.8 25.5
2018-Jan-14 02:00N 16°19' W 162°01'0 0.0 25.5
2018-Jan-14 01:00N 16°19' W 162°01'0 0.0 25.5
2018-Jan-14 00:00N 16°19' W 162°01'23 0.7 25.5
2018-Jan-12 15:00N 16°29' W 161°39'4 4.4 25.3
2018-Jan-12 14:00N 16°31' W 161°35'4 4.4 25.3
2018-Jan-12 13:00N 16°29' W 161°39'4 0.9 25.3
2018-Jan-12 08:00N 16°31' W 161°35'1 1.2 25.4
2018-Jan-12 07:00N 16°31' W 161°34'0 0.0 25.4
2018-Jan-12 06:00N 16°31' W 161°34'1 0.6 25.4
2018-Jan-12 05:00N 16°31' W 161°33'1 0.8 25.4
2018-Jan-12 04:00N 16°31' W 161°32'1 0.6 25.4
2018-Jan-12 03:00N 16°31' W 161°32'1 0.8 25.4
2018-Jan-12 02:00N 16°32' W 161°31'0 0.0 25.4
2018-Jan-12 01:00N 16°32' W 161°31'4 3.5 25.4
2018-Jan-12 00:00N 16°32' W 161°28'1 0.1 25.4
2018-Jan-11 20:00N 16°32' W 161°27'1 0.8 25.3
2018-Jan-11 19:00N 16°33' W 161°26'0 0.0 25.3
2018-Jan-11 18:00N 16°33' W 161°26'1 0.8 25.2
2018-Jan-11 17:00N 16°34' W 161°26'1 0.6 25.2
2018-Jan-11 16:00N 16°34' W 161°25'0 0.0 25.2
2018-Jan-11 15:00N 16°34' W 161°25'0 0.0 25.2
2018-Jan-11 14:00N 16°34' W 161°25'0 0.0 25.3
2018-Jan-11 13:00N 16°34' W 161°25'3 0.6 25.3
2018-Jan-11 08:00N 16°34' W 161°22'1 0.6 25.3
2018-Jan-11 06:00N 16°35' W 161°21'1 0.6 25.3
2018-Jan-11 05:00N 16°35' W 161°20'1 0.6 25.3
2018-Jan-11 04:00N 16°35' W 161°21'0 0.0 25.3
2018-Jan-11 03:00N 16°35' W 161°21'1 0.6 25.3
2018-Jan-11 02:00N 16°35' W 161°20'0 0.0 25.3
2018-Jan-11 01:00N 16°35' W 161°20'4 1.1 25.3
2018-Jan-10 21:00N 16°33' W 161°16'0 0.0 25.3
2018-Jan-10 20:00N 16°33' W 161°16'1 0.6 25.3
2018-Jan-10 19:00N 16°34' W 161°16'1 1.2 25.2
2018-Jan-10 18:00N 16°34' W 161°15'1 0.6 25.2
2018-Jan-10 17:00N 16°34' W 161°16'0 0.0 25.2
2018-Jan-10 16:00N 16°34' W 161°16'0 0.0 25.2
2018-Jan-10 15:00N 16°34' W 161°16'0 0.0 25.2
2018-Jan-10 14:00N 16°34' W 161°16'0 0.0 25.2
2018-Jan-10 13:00N 16°34' W 161°16'4 0.9 25.3
2018-Jan-10 08:00N 16°32' W 161°11'1 0.3 25.3
2018-Jan-10 06:00N 16°32' W 161°11'0 0.0 25.3
2018-Jan-10 05:00N 16°32' W 161°11'0 0.0 25.3
2018-Jan-10 04:00N 16°32' W 161°11'0 0.0 25.3
2018-Jan-10 03:00N 16°32' W 161°11'1 1.3 25.4
2018-Jan-10 02:00N 16°31' W 161°10'0 0.0 25.4
2018-Jan-10 01:00N 16°31' W 161°10'4 0.7 25.4
2018-Jan-09 20:00N 16°29' W 161°07'0 0.0 25.3
2018-Jan-09 19:00N 16°29' W 161°07'1 1.3 25.3
2018-Jan-09 18:00N 16°28' W 161°05'0 0.0 25.3
2018-Jan-09 17:00N 16°28' W 161°05'0 0.0 25.3
2018-Jan-09 16:00N 16°28' W 161°05'2 0.8 25.3
2018-Jan-09 14:00N 16°27' W 161°04'5 0.8 25.3
2018-Jan-09 08:00N 16°25' W 160°59'1 1.2 25.3
2018-Jan-09 07:00N 16°25' W 160°58'1 0.8 25.3
2018-Jan-09 06:00N 16°26' W 160°58'1 0.8 25.3
2018-Jan-09 05:00N 16°25' W 160°57'0 0.0 25.3
2018-Jan-09 04:00N 16°25' W 160°57'1 0.8 25.3
2018-Jan-09 03:00N 16°25' W 160°56'0 0.0 25.4
2018-Jan-09 02:00N 16°25' W 160°56'3 3.1 25.4
2018-Jan-09 01:00N 16°23' W 160°53'0 0.0 25.4
2018-Jan-08 20:00N 16°23' W 160°53'1 0.8 25.3
2018-Jan-08 19:00N 16°24' W 160°53'1 0.4 25.3
2018-Jan-08 17:00N 16°23' W 160°52'1 0.6 25.3
2018-Jan-08 16:00N 16°23' W 160°52'1 0.8 25.3
2018-Jan-08 15:00N 16°23' W 160°51'3 2.9 25.3
2018-Jan-08 14:00N 16°21' W 160°49'1 0.2 25.3
2018-Jan-08 07:00N 16°20' W 160°47'0 0.0 25.3
2018-Jan-08 06:00N 16°20' W 160°47'   25.4
Track history (hours):
 
Tides and Currents Weather Stations Pressure Air Temp Water Temp Dewpoint Dewpoint Depression Visibility Wind Speed Wind Dir Waves Ship Positions

Drifting buoy 43536

Last reported at 2018-Jan-18 06:00 UTC. Time now 2018-Jan-18 07:57 UTC.
Position N 16°42' W 162°58'.

Water temperature 25.4 ° C

Date/timePositionNaut miles runAvg speedWind from/ knotsBaromVisibWave heightAir tempDewpointWater temp
2018-Jan-18 06:00N 16°42' W 162°58'1 0.8 25.4
2018-Jan-18 05:00N 16°41' W 162°58'0 0.0 25.4
2018-Jan-18 04:00N 16°41' W 162°58'3 3.3 25.4
2018-Jan-18 03:00N 16°39' W 162°55'5 5.2 25.5
2018-Jan-18 02:00N 16°37' W 162°50'5 5.2 25.5
2018-Jan-18 01:00N 16°39' W 162°55'5 1.0 25.5
2018-Jan-17 20:00N 16°37' W 162°50'2 2.1 25.4
2018-Jan-17 19:00N 16°35' W 162°49'0 0.0 25.4
2018-Jan-17 18:00N 16°35' W 162°49'1 1.3 25.4
2018-Jan-17 17:00N 16°34' W 162°48'0 0.0 25.4
2018-Jan-17 16:00N 16°34' W 162°48'1 1.3 25.4
2018-Jan-17 15:00N 16°34' W 162°47'0 0.0 25.4
2018-Jan-17 14:00N 16°34' W 162°47'6 1.1 25.4
2018-Jan-17 08:00N 16°31' W 162°41'1 0.4 25.5
2018-Jan-17 06:00N 16°30' W 162°40'1 0.6 25.5
2018-Jan-17 05:00N 16°30' W 162°40'1 1.2 25.5
2018-Jan-17 04:00N 16°29' W 162°40'2 1.8 25.5
2018-Jan-17 03:00N 16°28' W 162°38'0 0.0 25.5
2018-Jan-17 02:00N 16°28' W 162°38'0 0.0 25.5
2018-Jan-17 01:00N 16°28' W 162°38'13 0.7 25.5
2018-Jan-16 07:00N 16°24' W 162°25'1 0.6 25.5
2018-Jan-16 06:00N 16°24' W 162°25'1 0.6 25.5
2018-Jan-16 05:00N 16°23' W 162°25'1 1.3 25.5
2018-Jan-16 04:00N 16°23' W 162°23'0 0.0 25.6
2018-Jan-16 03:00N 16°23' W 162°23'0 0.0 25.6
2018-Jan-16 02:00N 16°23' W 162°23'3 2.9 25.6
2018-Jan-16 01:00N 16°21' W 162°21'0 0.0 25.6
2018-Jan-15 21:00N 16°21' W 162°21'1 1.2 25.5
2018-Jan-15 20:00N 16°21' W 162°20'5 0.9 25.5
2018-Jan-15 15:00N 16°19' W 162°16'3 2.9 25.5
2018-Jan-15 14:00N 16°20' W 162°18'3 2.9 25.5
2018-Jan-15 13:00N 16°19' W 162°16'0 0.0 25.5
2018-Jan-15 08:00N 16°19' W 162°16'1 0.8 25.5
2018-Jan-15 07:00N 16°18' W 162°15'1 0.8 25.5
2018-Jan-15 06:00N 16°19' W 162°14'0 0.0 25.5
2018-Jan-15 05:00N 16°19' W 162°14'1 0.6 25.5
2018-Jan-15 04:00N 16°19' W 162°14'4 1.8 25.5
2018-Jan-15 02:00N 16°18' W 162°10'0 0.0 25.5
2018-Jan-15 01:00N 16°18' W 162°10'0 0.0 25.5
2018-Jan-15 00:00N 16°18' W 162°10'1 0.2 25.5
2018-Jan-14 21:00N 16°19' W 162°10'1 0.6 25.4
2018-Jan-14 20:00N 16°19' W 162°10'1 0.6 25.4
2018-Jan-14 19:00N 16°19' W 162°09'1 0.6 25.4
2018-Jan-14 18:00N 16°19' W 162°10'2 1.8 25.4
2018-Jan-14 17:00N 16°19' W 162°08'1 0.6 25.4
2018-Jan-14 16:00N 16°19' W 162°07'0 0.0 25.4
2018-Jan-14 15:00N 16°19' W 162°07'1 0.3 25.4
2018-Jan-14 13:00N 16°19' W 162°07'1 0.3 25.4
2018-Jan-14 09:00N 16°20' W 162°05'1 0.6 25.5
2018-Jan-14 08:00N 16°19' W 162°05'1 0.6 25.4
2018-Jan-14 07:00N 16°19' W 162°05'1 0.8 25.4
2018-Jan-14 06:00N 16°20' W 162°04'1 0.8 25.5
2018-Jan-14 05:00N 16°19' W 162°04'1 1.3 25.5
2018-Jan-14 04:00N 16°20' W 162°02'0 0.0 25.5
2018-Jan-14 03:00N 16°20' W 162°02'2 1.8 25.5
2018-Jan-14 02:00N 16°19' W 162°01'0 0.0 25.5
2018-Jan-14 01:00N 16°19' W 162°01'0 0.0 25.5
2018-Jan-14 00:00N 16°19' W 162°01'23 0.7 25.5
2018-Jan-12 15:00N 16°29' W 161°39'4 4.4 25.3
2018-Jan-12 14:00N 16°31' W 161°35'4 4.4 25.3
2018-Jan-12 13:00N 16°29' W 161°39'4 0.9 25.3
2018-Jan-12 08:00N 16°31' W 161°35'1 1.2 25.4
2018-Jan-12 07:00N 16°31' W 161°34'0 0.0 25.4
2018-Jan-12 06:00N 16°31' W 161°34'1 0.6 25.4
2018-Jan-12 05:00N 16°31' W 161°33'1 0.8 25.4
2018-Jan-12 04:00N 16°31' W 161°32'1 0.6 25.4
2018-Jan-12 03:00N 16°31' W 161°32'1 0.8 25.4
2018-Jan-12 02:00N 16°32' W 161°31'0 0.0 25.4
2018-Jan-12 01:00N 16°32' W 161°31'4 3.5 25.4
2018-Jan-12 00:00N 16°32' W 161°28'1 0.1 25.4
2018-Jan-11 20:00N 16°32' W 161°27'1 0.8 25.3
2018-Jan-11 19:00N 16°33' W 161°26'0 0.0 25.3
2018-Jan-11 18:00N 16°33' W 161°26'1 0.8 25.2
2018-Jan-11 17:00N 16°34' W 161°26'1 0.6 25.2
2018-Jan-11 16:00N 16°34' W 161°25'0 0.0 25.2
2018-Jan-11 15:00N 16°34' W 161°25'0 0.0 25.2
2018-Jan-11 14:00N 16°34' W 161°25'0 0.0 25.3
2018-Jan-11 13:00N 16°34' W 161°25'3 0.6 25.3
2018-Jan-11 08:00N 16°34' W 161°22'1 0.6 25.3
2018-Jan-11 06:00N 16°35' W 161°21'1 0.6 25.3
2018-Jan-11 05:00N 16°35' W 161°20'1 0.6 25.3
2018-Jan-11 04:00N 16°35' W 161°21'0 0.0 25.3
2018-Jan-11 03:00N 16°35' W 161°21'1 0.6 25.3
2018-Jan-11 02:00N 16°35' W 161°20'0 0.0 25.3
2018-Jan-11 01:00N 16°35' W 161°20'4 1.1 25.3
2018-Jan-10 21:00N 16°33' W 161°16'0 0.0 25.3
2018-Jan-10 20:00N 16°33' W 161°16'1 0.6 25.3
2018-Jan-10 19:00N 16°34' W 161°16'1 1.2 25.2
2018-Jan-10 18:00N 16°34' W 161°15'1 0.6 25.2
2018-Jan-10 17:00N 16°34' W 161°16'0 0.0 25.2
2018-Jan-10 16:00N 16°34' W 161°16'0 0.0 25.2
2018-Jan-10 15:00N 16°34' W 161°16'0 0.0 25.2
2018-Jan-10 14:00N 16°34' W 161°16'0 0.0 25.2
2018-Jan-10 13:00N 16°34' W 161°16'4 0.9 25.3
2018-Jan-10 08:00N 16°32' W 161°11'1 0.3 25.3
2018-Jan-10 06:00N 16°32' W 161°11'0 0.0 25.3
2018-Jan-10 05:00N 16°32' W 161°11'0 0.0 25.3
2018-Jan-10 04:00N 16°32' W 161°11'0 0.0 25.3
2018-Jan-10 03:00N 16°32' W 161°11'1 1.3 25.4
2018-Jan-10 02:00N 16°31' W 161°10'0 0.0 25.4
2018-Jan-10 01:00N 16°31' W 161°10'4 0.7 25.4
2018-Jan-09 20:00N 16°29' W 161°07'0 0.0 25.3
2018-Jan-09 19:00N 16°29' W 161°07'1 1.3 25.3
2018-Jan-09 18:00N 16°28' W 161°05'0 0.0 25.3
2018-Jan-09 17:00N 16°28' W 161°05'0 0.0 25.3
2018-Jan-09 16:00N 16°28' W 161°05'2 0.8 25.3
2018-Jan-09 14:00N 16°27' W 161°04'5 0.8 25.3
2018-Jan-09 08:00N 16°25' W 160°59'1 1.2 25.3
2018-Jan-09 07:00N 16°25' W 160°58'1 0.8 25.3
2018-Jan-09 06:00N 16°26' W 160°58'1 0.8 25.3
2018-Jan-09 05:00N 16°25' W 160°57'0 0.0 25.3
2018-Jan-09 04:00N 16°25' W 160°57'1 0.8 25.3
2018-Jan-09 03:00N 16°25' W 160°56'0 0.0 25.4
2018-Jan-09 02:00N 16°25' W 160°56'3 3.1 25.4
2018-Jan-09 01:00N 16°23' W 160°53'0 0.0 25.4
2018-Jan-08 20:00N 16°23' W 160°53'1 0.8 25.3
2018-Jan-08 19:00N 16°24' W 160°53'1 0.4 25.3
2018-Jan-08 17:00N 16°23' W 160°52'1 0.6 25.3
2018-Jan-08 16:00N 16°23' W 160°52'1 0.8 25.3
2018-Jan-08 15:00N 16°23' W 160°51'3 2.9 25.3
2018-Jan-08 14:00N 16°21' W 160°49'1 0.2 25.3
2018-Jan-08 07:00N 16°20' W 160°47'0 0.0 25.3
2018-Jan-08 06:00N 16°20' W 160°47'   25.4

Dump ship's entire track history